WJA210 KLAS-CYVR
Flight info
| Callsign | WJA210 |
|---|---|
| Flight time | 2h 20m |
| Altitude | 38000 |
| Route | JOHKR5 KENNO DCT OAL J92 FMG J5 SEA DCT PAE GRIZZ9 |
| Aircraft | B738/M-SDE2E3FGHIRWXY/LB1 |
Departure
| Time | 2026-05-08 01:11 |
|---|---|
| Airport | Harry Reid International Airport (KLAS) |
Arrival
| Time | 2026-05-08 03:31 |
|---|---|
| Airport | Vancouver International Airport (CYVR) |
| Time | Latitude | Longitude | Altitude | Speed | Heading |
|---|---|---|---|---|---|
| 2026-05-08 00:48 | 36.07976 | -115.14006 | 2092 ft | 0 kts | 25° |
| 2026-05-08 01:03 | 36.07970 | -115.14009 | 2111 ft | 4 kts | 25° |
| 2026-05-08 01:03 | 36.07946 | -115.14024 | 2092 ft | 4 kts | 26° |
| 2026-05-08 01:04 | 36.07926 | -115.14037 | 2092 ft | 4 kts | 41° |
| 2026-05-08 01:04 | 36.07912 | -115.14062 | 2093 ft | 4 kts | 77° |
| 2026-05-08 01:04 | 36.07909 | -115.14082 | 2093 ft | 0 kts | 89° |
| 2026-05-08 01:06 | 36.07910 | -115.14061 | 2093 ft | 11 kts | 90° |
| 2026-05-08 01:07 | 36.07871 | -115.14020 | 2092 ft | 11 kts | 146° |
| 2026-05-08 01:07 | 36.07829 | -115.13941 | 2092 ft | 12 kts | 94° |
| 2026-05-08 01:07 | 36.07827 | -115.13823 | 2092 ft | 18 kts | 90° |
| 2026-05-08 01:07 | 36.07828 | -115.13641 | 2091 ft | 22 kts | 90° |
| 2026-05-08 01:08 | 36.07828 | -115.13419 | 2089 ft | 27 kts | 90° |
| 2026-05-08 01:08 | 36.07829 | -115.13195 | 2084 ft | 26 kts | 89° |
| 2026-05-08 01:08 | 36.07829 | -115.12947 | 2072 ft | 31 kts | 90° |
| 2026-05-08 01:08 | 36.07828 | -115.12669 | 2063 ft | 33 kts | 89° |
| 2026-05-08 01:09 | 36.07829 | -115.12378 | 2055 ft | 34 kts | 91° |
| 2026-05-08 01:09 | 36.07826 | -115.12278 | 2053 ft | 6 kts | 100° |
| 2026-05-08 01:09 | 36.07787 | -115.12237 | 2051 ft | 8 kts | 166° |
| 2026-05-08 01:09 | 36.07750 | -115.12236 | 2050 ft | 0 kts | 180° |
| 2026-05-08 01:10 | 36.07748 | -115.12236 | 2050 ft | 1 kts | 180° |
| 2026-05-08 01:10 | 36.07683 | -115.12239 | 2049 ft | 15 kts | 193° |
| 2026-05-08 01:10 | 36.07642 | -115.12401 | 2053 ft | 48 kts | 270° |
| 2026-05-08 01:10 | 36.07642 | -115.13138 | 2083 ft | 122 kts | 270° |
| 2026-05-08 01:11 | 36.07639 | -115.14439 | 2227 ft | 171 kts | 270° |
| 2026-05-08 01:11 | 36.07639 | -115.16001 | 2880 ft | 190 kts | 271° |
| 2026-05-08 01:11 | 36.07641 | -115.17750 | 3393 ft | 218 kts | 269° |
| 2026-05-08 01:11 | 36.07640 | -115.19737 | 3785 ft | 239 kts | 269° |
| 2026-05-08 01:12 | 36.07538 | -115.21813 | 4364 ft | 245 kts | 261° |
| 2026-05-08 01:12 | 36.07215 | -115.23898 | 5019 ft | 248 kts | 251° |
| 2026-05-08 01:12 | 36.06301 | -115.25702 | 5749 ft | 253 kts | 224° |
| 2026-05-08 01:12 | 36.04789 | -115.26933 | 6256 ft | 271 kts | 202° |
| 2026-05-08 01:13 | 36.02994 | -115.27742 | 6948 ft | 277 kts | 201° |
| 2026-05-08 01:13 | 36.01168 | -115.28548 | 7598 ft | 279 kts | 201° |
| 2026-05-08 01:13 | 35.99336 | -115.29369 | 7985 ft | 283 kts | 202° |
| 2026-05-08 01:13 | 35.97540 | -115.30411 | 8555 ft | 287 kts | 210° |
| 2026-05-08 01:14 | 35.95775 | -115.31598 | 9402 ft | 290 kts | 211° |
| 2026-05-08 01:14 | 35.94002 | -115.32790 | 10250 ft | 291 kts | 211° |
| 2026-05-08 01:14 | 35.92805 | -115.33585 | 10599 ft | 298 kts | 211° |
| 2026-05-08 01:14 | 35.90971 | -115.34799 | 10970 ft | 299 kts | 212° |
| 2026-05-08 01:15 | 35.89049 | -115.37161 | 11002 ft | 296 kts | 248° |
| 2026-05-08 01:15 | 35.88511 | -115.39588 | 11040 ft | 294 kts | 268° |
| 2026-05-08 01:15 | 35.88514 | -115.42114 | 11050 ft | 295 kts | 274° |
| 2026-05-08 01:15 | 35.88592 | -115.44641 | 11030 ft | 294 kts | 274° |
| 2026-05-08 01:16 | 35.88646 | -115.46344 | 11024 ft | 293 kts | 275° |
| 2026-05-08 01:16 | 35.88713 | -115.48836 | 11018 ft | 289 kts | 274° |
| 2026-05-08 01:16 | 35.88769 | -115.51283 | 11040 ft | 290 kts | 273° |
| 2026-05-08 01:16 | 35.88820 | -115.53765 | 11048 ft | 288 kts | 274° |
| 2026-05-08 01:17 | 35.88871 | -115.56241 | 11028 ft | 289 kts | 274° |
| 2026-05-08 01:17 | 35.88921 | -115.58775 | 11104 ft | 304 kts | 272° |
| 2026-05-08 01:17 | 35.88975 | -115.61489 | 11324 ft | 326 kts | 272° |
| 2026-05-08 01:17 | 35.89033 | -115.64388 | 11456 ft | 349 kts | 274° |
| 2026-05-08 01:18 | 35.89090 | -115.67469 | 11675 ft | 368 kts | 273° |
| 2026-05-08 01:18 | 35.89146 | -115.70647 | 12277 ft | 373 kts | 273° |
| 2026-05-08 01:18 | 35.89203 | -115.73868 | 12933 ft | 377 kts | 273° |
| 2026-05-08 01:18 | 35.89258 | -115.77077 | 13601 ft | 379 kts | 273° |
| 2026-05-08 01:19 | 35.89315 | -115.80342 | 14231 ft | 382 kts | 274° |
| 2026-05-08 01:19 | 35.89373 | -115.83638 | 14807 ft | 387 kts | 273° |
| 2026-05-08 01:19 | 35.89429 | -115.86978 | 15377 ft | 392 kts | 273° |
| 2026-05-08 01:19 | 35.89496 | -115.90350 | 15955 ft | 394 kts | 275° |
| 2026-05-08 01:20 | 35.90100 | -115.93629 | 16505 ft | 393 kts | 296° |
| 2026-05-08 01:20 | 35.91547 | -115.96468 | 17092 ft | 393 kts | 314° |
| 2026-05-08 01:20 | 35.93472 | -115.98899 | 17672 ft | 396 kts | 317° |
| 2026-05-08 01:20 | 35.95421 | -116.01256 | 18218 ft | 399 kts | 317° |
| 2026-05-08 01:21 | 35.97413 | -116.03652 | 18751 ft | 401 kts | 317° |
| 2026-05-08 01:21 | 35.99438 | -116.06100 | 19271 ft | 405 kts | 317° |
| 2026-05-08 01:21 | 36.01424 | -116.08522 | 19771 ft | 408 kts | 317° |
| 2026-05-08 01:21 | 36.03445 | -116.11007 | 20268 ft | 411 kts | 317° |
| 2026-05-08 01:22 | 36.05472 | -116.13514 | 20762 ft | 413 kts | 317° |
| 2026-05-08 01:22 | 36.07518 | -116.16042 | 21206 ft | 417 kts | 317° |
| 2026-05-08 01:22 | 36.09575 | -116.18589 | 21673 ft | 420 kts | 317° |
| 2026-05-08 01:22 | 36.11644 | -116.21153 | 22138 ft | 422 kts | 317° |
| 2026-05-08 01:23 | 36.13727 | -116.23737 | 22550 ft | 426 kts | 317° |
| 2026-05-08 01:23 | 36.15827 | -116.26348 | 22948 ft | 429 kts | 317° |
| 2026-05-08 01:23 | 36.17947 | -116.28985 | 23362 ft | 433 kts | 317° |
| 2026-05-08 01:23 | 36.20072 | -116.31628 | 23722 ft | 435 kts | 317° |
| 2026-05-08 01:24 | 36.22211 | -116.34293 | 24084 ft | 437 kts | 317° |
| 2026-05-08 01:24 | 36.24363 | -116.36976 | 24463 ft | 439 kts | 317° |
| 2026-05-08 01:24 | 36.26521 | -116.39667 | 24821 ft | 441 kts | 317° |
| 2026-05-08 01:24 | 36.28659 | -116.42333 | 25162 ft | 443 kts | 317° |
| 2026-05-08 01:25 | 36.30870 | -116.45005 | 25519 ft | 445 kts | 318° |
| 2026-05-08 01:25 | 36.33117 | -116.47661 | 25869 ft | 446 kts | 319° |
| 2026-05-08 01:25 | 36.35388 | -116.50302 | 26174 ft | 448 kts | 320° |
| 2026-05-08 01:25 | 36.37665 | -116.52946 | 26473 ft | 451 kts | 318° |
| 2026-05-08 01:26 | 36.39925 | -116.55674 | 26781 ft | 453 kts | 317° |
| 2026-05-08 01:26 | 36.42188 | -116.58404 | 27081 ft | 456 kts | 317° |
| 2026-05-08 01:26 | 36.44475 | -116.61146 | 27410 ft | 457 kts | 318° |
| 2026-05-08 01:26 | 36.46801 | -116.63849 | 27736 ft | 458 kts | 319° |
| 2026-05-08 01:27 | 36.49171 | -116.66515 | 28060 ft | 459 kts | 320° |
| 2026-05-08 01:27 | 36.51550 | -116.69185 | 28315 ft | 462 kts | 319° |
| 2026-05-08 01:27 | 36.53901 | -116.71844 | 28635 ft | 463 kts | 319° |
| 2026-05-08 01:27 | 36.56275 | -116.74545 | 29085 ft | 462 kts | 319° |
| 2026-05-08 01:28 | 36.58637 | -116.77236 | 29576 ft | 459 kts | 319° |
| 2026-05-08 01:28 | 36.60987 | -116.79920 | 30032 ft | 458 kts | 319° |
| 2026-05-08 01:28 | 36.63333 | -116.82599 | 30380 ft | 457 kts | 319° |
| 2026-05-08 01:28 | 36.65672 | -116.85272 | 30755 ft | 455 kts | 320° |
| 2026-05-08 01:29 | 36.68022 | -116.87912 | 31092 ft | 454 kts | 319° |
| 2026-05-08 01:29 | 36.70341 | -116.90601 | 31399 ft | 454 kts | 318° |
| 2026-05-08 01:29 | 36.72652 | -116.93283 | 31744 ft | 454 kts | 319° |
| 2026-05-08 01:29 | 36.75171 | -116.95613 | 32059 ft | 451 kts | 333° |
| 2026-05-08 01:30 | 36.77964 | -116.97347 | 32431 ft | 448 kts | 335° |
| 2026-05-08 01:30 | 36.80755 | -116.99077 | 32765 ft | 448 kts | 334° |
| 2026-05-08 01:30 | 36.83526 | -117.00816 | 33100 ft | 447 kts | 334° |
| 2026-05-08 01:30 | 36.86294 | -117.02591 | 33495 ft | 445 kts | 333° |
| 2026-05-08 01:31 | 36.89030 | -117.04364 | 33878 ft | 443 kts | 333° |
| 2026-05-08 01:31 | 36.91778 | -117.06153 | 34132 ft | 444 kts | 333° |
| 2026-05-08 01:31 | 36.94517 | -117.07936 | 34380 ft | 444 kts | 333° |
| 2026-05-08 01:31 | 36.97223 | -117.09698 | 34680 ft | 443 kts | 333° |
| 2026-05-08 01:32 | 36.99951 | -117.11475 | 34969 ft | 442 kts | 333° |
| 2026-05-08 01:32 | 37.02675 | -117.13249 | 35248 ft | 441 kts | 333° |
| 2026-05-08 01:32 | 37.05396 | -117.15016 | 35485 ft | 441 kts | 333° |
| 2026-05-08 01:32 | 37.08116 | -117.16789 | 35730 ft | 441 kts | 333° |
| 2026-05-08 01:33 | 37.10842 | -117.18571 | 35909 ft | 442 kts | 333° |
| 2026-05-08 01:33 | 37.13575 | -117.20360 | 36099 ft | 443 kts | 333° |
| 2026-05-08 01:33 | 37.16305 | -117.22149 | 36368 ft | 442 kts | 333° |
| 2026-05-08 01:33 | 37.19026 | -117.23932 | 36667 ft | 440 kts | 332° |
| 2026-05-08 01:34 | 37.21737 | -117.25708 | 36950 ft | 439 kts | 332° |
| 2026-05-08 01:34 | 37.24447 | -117.27485 | 37180 ft | 438 kts | 332° |
| 2026-05-08 01:34 | 37.27118 | -117.29237 | 37360 ft | 439 kts | 332° |
| 2026-05-08 01:34 | 37.29862 | -117.31038 | 37590 ft | 439 kts | 332° |
| 2026-05-08 01:35 | 37.32567 | -117.32802 | 37857 ft | 437 kts | 333° |
| 2026-05-08 01:35 | 37.38017 | -117.36321 | 37900 ft | 441 kts | 333° |
| 2026-05-08 01:36 | 37.43424 | -117.39812 | 37904 ft | 438 kts | 333° |
| 2026-05-08 01:36 | 37.48820 | -117.43308 | 37906 ft | 435 kts | 333° |
| 2026-05-08 01:37 | 37.54180 | -117.46791 | 37903 ft | 432 kts | 333° |
| 2026-05-08 01:37 | 37.59543 | -117.50281 | 37917 ft | 436 kts | 332° |
| 2026-05-08 01:38 | 37.64966 | -117.53818 | 37913 ft | 442 kts | 332° |
| 2026-05-08 01:38 | 37.70442 | -117.57394 | 37917 ft | 444 kts | 332° |
| 2026-05-08 01:39 | 37.75916 | -117.60974 | 37890 ft | 445 kts | 332° |
| 2026-05-08 01:39 | 37.81414 | -117.64576 | 37893 ft | 445 kts | 332° |
| 2026-05-08 01:40 | 37.86904 | -117.68180 | 37908 ft | 443 kts | 332° |
| 2026-05-08 01:40 | 37.92379 | -117.71779 | 37903 ft | 442 kts | 332° |
| 2026-05-08 01:41 | 37.97820 | -117.75363 | 37903 ft | 440 kts | 332° |
| 2026-05-08 01:41 | 38.02804 | -117.79802 | 37904 ft | 437 kts | 316° |
| 2026-05-08 01:42 | 38.07186 | -117.85141 | 37918 ft | 436 kts | 316° |
| 2026-05-08 01:42 | 38.11528 | -117.90453 | 37913 ft | 435 kts | 316° |
| 2026-05-08 01:43 | 38.15900 | -117.95749 | 37922 ft | 434 kts | 316° |
| 2026-05-08 01:43 | 38.20270 | -118.01026 | 37945 ft | 432 kts | 316° |
| 2026-05-08 01:44 | 38.24627 | -118.06291 | 37945 ft | 431 kts | 316° |
| 2026-05-08 01:44 | 38.28950 | -118.11526 | 37932 ft | 431 kts | 316° |
| 2026-05-08 01:45 | 38.33286 | -118.16786 | 37955 ft | 430 kts | 316° |
| 2026-05-08 01:45 | 38.37620 | -118.22053 | 37958 ft | 431 kts | 316° |
| 2026-05-08 01:46 | 38.41962 | -118.27341 | 37978 ft | 431 kts | 316° |
| 2026-05-08 01:46 | 38.46285 | -118.32614 | 37995 ft | 433 kts | 316° |
| 2026-05-08 01:47 | 38.50637 | -118.37929 | 38016 ft | 434 kts | 315° |
| 2026-05-08 01:47 | 38.55005 | -118.43262 | 38050 ft | 435 kts | 316° |
| 2026-05-08 01:48 | 38.61580 | -118.51293 | 38047 ft | 436 kts | 316° |
| 2026-05-08 01:48 | 38.65956 | -118.56650 | 38073 ft | 435 kts | 315° |
| 2026-05-08 01:49 | 38.68141 | -118.59330 | 37964 ft | 435 kts | 315° |
| 2026-05-08 01:49 | 38.70295 | -118.61974 | 37975 ft | 435 kts | 315° |
| 2026-05-08 01:49 | 38.74659 | -118.67339 | 37963 ft | 434 kts | 315° |
| 2026-05-08 01:50 | 38.79012 | -118.72700 | 37975 ft | 433 kts | 315° |
| 2026-05-08 01:50 | 38.83350 | -118.78050 | 37992 ft | 432 kts | 315° |
| 2026-05-08 01:51 | 38.87653 | -118.83369 | 37979 ft | 431 kts | 315° |
| 2026-05-08 01:51 | 38.91977 | -118.88724 | 37971 ft | 431 kts | 315° |
| 2026-05-08 01:52 | 38.96291 | -118.94074 | 38004 ft | 432 kts | 315° |
| 2026-05-08 01:52 | 39.00624 | -118.99452 | 37995 ft | 433 kts | 314° |
| 2026-05-08 01:53 | 39.04957 | -119.04844 | 37991 ft | 434 kts | 315° |
| 2026-05-08 01:53 | 39.09304 | -119.10262 | 37977 ft | 435 kts | 315° |
| 2026-05-08 01:54 | 39.13625 | -119.15658 | 37985 ft | 435 kts | 314° |
| 2026-05-08 01:54 | 39.17979 | -119.21103 | 38004 ft | 435 kts | 315° |
| 2026-05-08 01:55 | 39.22329 | -119.26549 | 37988 ft | 436 kts | 314° |
| 2026-05-08 01:55 | 39.26670 | -119.32012 | 37998 ft | 435 kts | 314° |
| 2026-05-08 01:56 | 39.30990 | -119.37480 | 38022 ft | 434 kts | 314° |
| 2026-05-08 01:56 | 39.35276 | -119.42910 | 38052 ft | 433 kts | 314° |
| 2026-05-08 01:57 | 39.39572 | -119.48364 | 38047 ft | 432 kts | 314° |
| 2026-05-08 01:57 | 39.43868 | -119.53827 | 38069 ft | 433 kts | 314° |
| 2026-05-08 01:58 | 39.48139 | -119.59265 | 38111 ft | 433 kts | 314° |
| 2026-05-08 01:58 | 39.52751 | -119.64293 | 38114 ft | 437 kts | 328° |
| 2026-05-08 01:59 | 39.58404 | -119.67226 | 38109 ft | 442 kts | 346° |
| 2026-05-08 01:59 | 39.64437 | -119.68823 | 38141 ft | 443 kts | 346° |
| 2026-05-08 02:00 | 39.70482 | -119.70405 | 38141 ft | 443 kts | 346° |
| 2026-05-08 02:00 | 39.76513 | -119.72054 | 38131 ft | 442 kts | 345° |
| 2026-05-08 02:01 | 39.82494 | -119.73714 | 38116 ft | 441 kts | 347° |
| 2026-05-08 02:01 | 39.88493 | -119.75376 | 38076 ft | 441 kts | 346° |
| 2026-05-08 02:02 | 39.94484 | -119.77034 | 38043 ft | 440 kts | 346° |
| 2026-05-08 02:02 | 40.00478 | -119.78701 | 38010 ft | 440 kts | 346° |
| 2026-05-08 02:03 | 40.06459 | -119.80368 | 37996 ft | 439 kts | 345° |
| 2026-05-08 02:03 | 40.12434 | -119.82031 | 37983 ft | 439 kts | 346° |
| 2026-05-08 02:04 | 40.17407 | -119.83411 | 37978 ft | 440 kts | 345° |
| 2026-05-08 02:04 | 40.23407 | -119.85088 | 37990 ft | 442 kts | 346° |
| 2026-05-08 02:05 | 40.30410 | -119.87059 | 37979 ft | 443 kts | 346° |
| 2026-05-08 02:05 | 40.35467 | -119.88482 | 37982 ft | 443 kts | 346° |
| 2026-05-08 02:06 | 40.41472 | -119.90167 | 37974 ft | 443 kts | 346° |
| 2026-05-08 02:06 | 40.47498 | -119.91863 | 37986 ft | 442 kts | 345° |
| 2026-05-08 02:07 | 40.53517 | -119.93564 | 37992 ft | 442 kts | 346° |
| 2026-05-08 02:07 | 40.59531 | -119.95261 | 37997 ft | 441 kts | 346° |
| 2026-05-08 02:08 | 40.65532 | -119.96959 | 37994 ft | 441 kts | 346° |
| 2026-05-08 02:08 | 40.71523 | -119.98661 | 38003 ft | 440 kts | 346° |
| 2026-05-08 02:09 | 40.77499 | -120.00362 | 38018 ft | 439 kts | 346° |
| 2026-05-08 02:09 | 40.83431 | -120.02051 | 38020 ft | 438 kts | 346° |
| 2026-05-08 02:10 | 40.87596 | -120.03246 | 38013 ft | 438 kts | 346° |
| 2026-05-08 02:10 | 40.93549 | -120.04961 | 38022 ft | 438 kts | 346° |
| 2026-05-08 02:11 | 40.99508 | -120.06682 | 38039 ft | 437 kts | 345° |
| 2026-05-08 02:11 | 41.05416 | -120.08391 | 38035 ft | 437 kts | 346° |
| 2026-05-08 02:12 | 41.11362 | -120.10112 | 38026 ft | 438 kts | 346° |
| 2026-05-08 02:12 | 41.17298 | -120.11827 | 38038 ft | 436 kts | 346° |
| 2026-05-08 02:13 | 41.23228 | -120.13536 | 38057 ft | 435 kts | 346° |
| 2026-05-08 02:13 | 41.29180 | -120.15259 | 38023 ft | 440 kts | 346° |
| 2026-05-08 02:14 | 41.35177 | -120.16998 | 38069 ft | 442 kts | 346° |
| 2026-05-08 02:14 | 41.41217 | -120.18756 | 38061 ft | 445 kts | 346° |
| 2026-05-08 02:15 | 41.47195 | -120.20491 | 38044 ft | 438 kts | 345° |
| 2026-05-08 02:15 | 41.53109 | -120.22211 | 38028 ft | 433 kts | 346° |
| 2026-05-08 02:16 | 41.59001 | -120.23931 | 38043 ft | 433 kts | 345° |
| 2026-05-08 02:16 | 41.64880 | -120.25650 | 38066 ft | 433 kts | 345° |
| 2026-05-08 02:17 | 41.70812 | -120.27388 | 38051 ft | 439 kts | 345° |
| 2026-05-08 02:17 | 41.76787 | -120.29145 | 38053 ft | 441 kts | 345° |
| 2026-05-08 02:18 | 41.82788 | -120.30910 | 38057 ft | 442 kts | 345° |
| 2026-05-08 02:18 | 41.88752 | -120.32666 | 38080 ft | 441 kts | 345° |
| 2026-05-08 02:19 | 41.94746 | -120.34435 | 38086 ft | 440 kts | 345° |
| 2026-05-08 02:19 | 42.00727 | -120.36203 | 38103 ft | 439 kts | 345° |
| 2026-05-08 02:20 | 42.06686 | -120.37969 | 38117 ft | 438 kts | 345° |
| 2026-05-08 02:20 | 42.12629 | -120.39734 | 38130 ft | 436 kts | 345° |
| 2026-05-08 02:21 | 42.18548 | -120.41495 | 38117 ft | 435 kts | 345° |
| 2026-05-08 02:21 | 42.24447 | -120.43253 | 38077 ft | 433 kts | 345° |
| 2026-05-08 02:22 | 42.30328 | -120.45009 | 38071 ft | 432 kts | 345° |
| 2026-05-08 02:22 | 42.36191 | -120.46764 | 38072 ft | 431 kts | 345° |
| 2026-05-08 02:23 | 42.42052 | -120.48521 | 38067 ft | 431 kts | 345° |
| 2026-05-08 02:23 | 42.47881 | -120.50272 | 38063 ft | 431 kts | 345° |
| 2026-05-08 02:24 | 42.53732 | -120.52117 | 38050 ft | 431 kts | 343° |
| 2026-05-08 02:24 | 42.59566 | -120.54089 | 38055 ft | 432 kts | 343° |
| 2026-05-08 02:25 | 42.65360 | -120.56060 | 38052 ft | 432 kts | 343° |
| 2026-05-08 02:25 | 42.71239 | -120.58045 | 38039 ft | 433 kts | 343° |
| 2026-05-08 02:26 | 42.77055 | -120.60004 | 38040 ft | 433 kts | 343° |
| 2026-05-08 02:26 | 42.82907 | -120.61978 | 38048 ft | 433 kts | 343° |
| 2026-05-08 02:27 | 42.88768 | -120.63957 | 38040 ft | 434 kts | 343° |
| 2026-05-08 02:27 | 42.94619 | -120.65938 | 38036 ft | 434 kts | 343° |
| 2026-05-08 02:28 | 43.00482 | -120.67926 | 38030 ft | 433 kts | 343° |
| 2026-05-08 02:28 | 43.06329 | -120.69912 | 38046 ft | 432 kts | 343° |
| 2026-05-08 02:29 | 43.12164 | -120.71898 | 38037 ft | 432 kts | 342° |
| 2026-05-08 02:29 | 43.17994 | -120.73889 | 38029 ft | 431 kts | 342° |
| 2026-05-08 02:30 | 43.23766 | -120.75862 | 38043 ft | 429 kts | 342° |
| 2026-05-08 02:30 | 43.29557 | -120.77845 | 38029 ft | 428 kts | 342° |
| 2026-05-08 02:31 | 43.35336 | -120.79828 | 38029 ft | 427 kts | 342° |
| 2026-05-08 02:31 | 43.41102 | -120.81811 | 38033 ft | 427 kts | 342° |
| 2026-05-08 02:32 | 43.46860 | -120.83795 | 38037 ft | 427 kts | 342° |
| 2026-05-08 02:32 | 43.52628 | -120.85787 | 38055 ft | 427 kts | 342° |
| 2026-05-08 02:33 | 43.58398 | -120.87783 | 38040 ft | 427 kts | 342° |
| 2026-05-08 02:33 | 43.64130 | -120.89769 | 38046 ft | 427 kts | 342° |
| 2026-05-08 02:34 | 43.69911 | -120.91777 | 38036 ft | 428 kts | 342° |
| 2026-05-08 02:34 | 43.75683 | -120.93785 | 38039 ft | 428 kts | 342° |
| 2026-05-08 02:35 | 43.81464 | -120.95802 | 38039 ft | 428 kts | 342° |
| 2026-05-08 02:35 | 43.87250 | -120.97822 | 38041 ft | 428 kts | 342° |
| 2026-05-08 02:36 | 43.93025 | -120.99844 | 38053 ft | 428 kts | 342° |
| 2026-05-08 02:36 | 43.98773 | -121.01860 | 38050 ft | 428 kts | 342° |
| 2026-05-08 02:37 | 44.04553 | -121.03892 | 38084 ft | 428 kts | 342° |
| 2026-05-08 02:37 | 44.10333 | -121.05928 | 38065 ft | 428 kts | 341° |
| 2026-05-08 02:38 | 44.16112 | -121.07967 | 38051 ft | 428 kts | 341° |
| 2026-05-08 02:38 | 44.21888 | -121.10009 | 38064 ft | 428 kts | 341° |
| 2026-05-08 02:39 | 44.27656 | -121.12054 | 38055 ft | 427 kts | 341° |
| 2026-05-08 02:39 | 44.33431 | -121.14106 | 38024 ft | 427 kts | 341° |
| 2026-05-08 02:40 | 44.39195 | -121.16159 | 38026 ft | 427 kts | 341° |
| 2026-05-08 02:40 | 44.44923 | -121.18203 | 38018 ft | 428 kts | 341° |
| 2026-05-08 02:41 | 44.50706 | -121.20271 | 38022 ft | 428 kts | 341° |
| 2026-05-08 02:41 | 44.56481 | -121.22340 | 38018 ft | 428 kts | 341° |
| 2026-05-08 02:42 | 44.62252 | -121.24412 | 38021 ft | 428 kts | 341° |
| 2026-05-08 02:42 | 44.68034 | -121.26492 | 38016 ft | 429 kts | 341° |
| 2026-05-08 02:43 | 44.73811 | -121.28575 | 38017 ft | 429 kts | 341° |
| 2026-05-08 02:43 | 44.77889 | -121.30047 | 38023 ft | 429 kts | 341° |
| 2026-05-08 02:44 | 44.83676 | -121.32136 | 38036 ft | 428 kts | 341° |
| 2026-05-08 02:44 | 44.89450 | -121.34231 | 38025 ft | 428 kts | 341° |
| 2026-05-08 02:45 | 44.95234 | -121.36336 | 38025 ft | 429 kts | 341° |
| 2026-05-08 02:45 | 45.01020 | -121.38442 | 38022 ft | 429 kts | 341° |
| 2026-05-08 02:46 | 45.06801 | -121.40550 | 38029 ft | 430 kts | 341° |
| 2026-05-08 02:46 | 45.12561 | -121.42656 | 38029 ft | 430 kts | 341° |
| 2026-05-08 02:47 | 45.18339 | -121.44772 | 38035 ft | 429 kts | 341° |
| 2026-05-08 02:47 | 45.24125 | -121.46895 | 38045 ft | 428 kts | 341° |
| 2026-05-08 02:48 | 45.29891 | -121.49016 | 38023 ft | 428 kts | 341° |
| 2026-05-08 02:48 | 45.35646 | -121.51137 | 38032 ft | 426 kts | 341° |
| 2026-05-08 02:49 | 45.41353 | -121.53246 | 38031 ft | 426 kts | 341° |
| 2026-05-08 02:49 | 45.47088 | -121.55370 | 38043 ft | 425 kts | 341° |
| 2026-05-08 02:50 | 45.52810 | -121.57492 | 38018 ft | 424 kts | 341° |
| 2026-05-08 02:50 | 45.58520 | -121.59614 | 38028 ft | 423 kts | 341° |
| 2026-05-08 02:51 | 45.64210 | -121.61733 | 38040 ft | 422 kts | 341° |
| 2026-05-08 02:51 | 45.69850 | -121.63837 | 38038 ft | 420 kts | 341° |
| 2026-05-08 02:52 | 45.75507 | -121.65956 | 38044 ft | 419 kts | 341° |
| 2026-05-08 02:52 | 45.80197 | -121.67713 | 38039 ft | 418 kts | 341° |
| 2026-05-08 02:53 | 45.85829 | -121.69827 | 38062 ft | 418 kts | 340° |
| 2026-05-08 02:53 | 45.91480 | -121.71955 | 38056 ft | 420 kts | 341° |
| 2026-05-08 02:54 | 45.97145 | -121.74092 | 38049 ft | 421 kts | 341° |
| 2026-05-08 02:54 | 46.02825 | -121.76238 | 38064 ft | 422 kts | 341° |
| 2026-05-08 02:55 | 46.11346 | -121.79468 | 38065 ft | 426 kts | 341° |
| 2026-05-08 02:56 | 46.17090 | -121.81649 | 38075 ft | 427 kts | 340° |
| 2026-05-08 02:56 | 46.22845 | -121.83841 | 38066 ft | 428 kts | 340° |
| 2026-05-08 02:57 | 46.28584 | -121.86010 | 38076 ft | 424 kts | 341° |
| 2026-05-08 02:57 | 46.34287 | -121.88190 | 38092 ft | 423 kts | 340° |
| 2026-05-08 02:58 | 46.39951 | -121.90372 | 38081 ft | 423 kts | 340° |
| 2026-05-08 02:58 | 46.45622 | -121.92563 | 38127 ft | 420 kts | 340° |
| 2026-05-08 02:59 | 46.51300 | -121.94748 | 38100 ft | 423 kts | 340° |
| 2026-05-08 02:59 | 46.57002 | -121.96945 | 38092 ft | 424 kts | 340° |
| 2026-05-08 03:00 | 46.62709 | -121.99150 | 38093 ft | 425 kts | 340° |
| 2026-05-08 03:00 | 46.67462 | -122.00997 | 38124 ft | 426 kts | 340° |
| 2026-05-08 03:01 | 46.72432 | -122.02923 | 38073 ft | 428 kts | 340° |
| 2026-05-08 03:01 | 46.78174 | -122.05155 | 38098 ft | 426 kts | 340° |
| 2026-05-08 03:02 | 46.83859 | -122.07375 | 38117 ft | 425 kts | 340° |
| 2026-05-08 03:02 | 46.89576 | -122.09613 | 38102 ft | 424 kts | 340° |
| 2026-05-08 03:03 | 46.95269 | -122.11829 | 38124 ft | 421 kts | 340° |
| 2026-05-08 03:03 | 47.00925 | -122.14060 | 38105 ft | 421 kts | 340° |
| 2026-05-08 03:04 | 47.06576 | -122.16299 | 38099 ft | 420 kts | 340° |
| 2026-05-08 03:04 | 47.12225 | -122.18535 | 38103 ft | 420 kts | 340° |
| 2026-05-08 03:05 | 47.17869 | -122.20774 | 38114 ft | 420 kts | 340° |
| 2026-05-08 03:05 | 47.23469 | -122.23000 | 38126 ft | 421 kts | 340° |
| 2026-05-08 03:06 | 47.29128 | -122.25253 | 38120 ft | 421 kts | 340° |
| 2026-05-08 03:06 | 47.31970 | -122.26387 | 37696 ft | 429 kts | 340° |
| 2026-05-08 03:06 | 47.34843 | -122.27531 | 37255 ft | 426 kts | 340° |
| 2026-05-08 03:06 | 47.37706 | -122.28677 | 36699 ft | 424 kts | 340° |
| 2026-05-08 03:07 | 47.40553 | -122.29817 | 36082 ft | 424 kts | 340° |
| 2026-05-08 03:07 | 47.43462 | -122.30718 | 35443 ft | 430 kts | 347° |
| 2026-05-08 03:07 | 47.46477 | -122.30963 | 34720 ft | 439 kts | 356° |
| 2026-05-08 03:07 | 47.49541 | -122.30764 | 34035 ft | 443 kts | 358° |
| 2026-05-08 03:08 | 47.52635 | -122.30513 | 33259 ft | 445 kts | 358° |
| 2026-05-08 03:08 | 47.55740 | -122.30256 | 32536 ft | 446 kts | 358° |
| 2026-05-08 03:08 | 47.57031 | -122.30154 | 32228 ft | 447 kts | 358° |
| 2026-05-08 03:08 | 47.60105 | -122.29921 | 31506 ft | 448 kts | 358° |
| 2026-05-08 03:09 | 47.63223 | -122.29701 | 30876 ft | 448 kts | 358° |
| 2026-05-08 03:09 | 47.66325 | -122.29488 | 30361 ft | 445 kts | 358° |
| 2026-05-08 03:09 | 47.69416 | -122.29282 | 29782 ft | 442 kts | 358° |
| 2026-05-08 03:09 | 47.72480 | -122.29078 | 29204 ft | 439 kts | 358° |
| 2026-05-08 03:10 | 47.75518 | -122.28877 | 28652 ft | 435 kts | 358° |
| 2026-05-08 03:10 | 47.78533 | -122.28676 | 28133 ft | 431 kts | 358° |
| 2026-05-08 03:10 | 47.81517 | -122.28477 | 27607 ft | 427 kts | 358° |
| 2026-05-08 03:10 | 47.84478 | -122.28280 | 27080 ft | 424 kts | 358° |
| 2026-05-08 03:11 | 47.87388 | -122.28087 | 26572 ft | 421 kts | 358° |
| 2026-05-08 03:11 | 47.90314 | -122.27891 | 26050 ft | 419 kts | 358° |
| 2026-05-08 03:11 | 47.93200 | -122.27912 | 25466 ft | 413 kts | 349° |
| 2026-05-08 03:11 | 47.96045 | -122.28612 | 24856 ft | 412 kts | 345° |
| 2026-05-08 03:12 | 47.98840 | -122.29483 | 24304 ft | 410 kts | 344° |
| 2026-05-08 03:12 | 48.01625 | -122.30384 | 23781 ft | 409 kts | 344° |
| 2026-05-08 03:12 | 48.04402 | -122.31268 | 23196 ft | 407 kts | 345° |
| 2026-05-08 03:12 | 48.07168 | -122.32121 | 22647 ft | 404 kts | 345° |
| 2026-05-08 03:13 | 48.09923 | -122.32949 | 22140 ft | 401 kts | 346° |
| 2026-05-08 03:13 | 48.12650 | -122.33755 | 21621 ft | 399 kts | 346° |
| 2026-05-08 03:13 | 48.15370 | -122.34548 | 21118 ft | 396 kts | 346° |
| 2026-05-08 03:13 | 48.18043 | -122.35325 | 20625 ft | 394 kts | 346° |
| 2026-05-08 03:14 | 48.20727 | -122.36104 | 20133 ft | 392 kts | 346° |
| 2026-05-08 03:14 | 48.23406 | -122.36884 | 19633 ft | 391 kts | 347° |
| 2026-05-08 03:14 | 48.26073 | -122.37662 | 19134 ft | 390 kts | 347° |
| 2026-05-08 03:14 | 48.28734 | -122.38439 | 18625 ft | 390 kts | 347° |
| 2026-05-08 03:15 | 48.31396 | -122.39218 | 18074 ft | 389 kts | 347° |
| 2026-05-08 03:15 | 48.34052 | -122.39995 | 17547 ft | 387 kts | 347° |
| 2026-05-08 03:15 | 48.36692 | -122.40768 | 17042 ft | 385 kts | 347° |
| 2026-05-08 03:15 | 48.39308 | -122.41535 | 16540 ft | 383 kts | 347° |
| 2026-05-08 03:16 | 48.41913 | -122.42300 | 16064 ft | 380 kts | 347° |
| 2026-05-08 03:16 | 48.44506 | -122.43063 | 15580 ft | 378 kts | 347° |
| 2026-05-08 03:16 | 48.47082 | -122.43821 | 15100 ft | 376 kts | 347° |
| 2026-05-08 03:16 | 48.49642 | -122.44575 | 14606 ft | 375 kts | 347° |
| 2026-05-08 03:17 | 48.52203 | -122.45330 | 14127 ft | 374 kts | 348° |
| 2026-05-08 03:17 | 48.54750 | -122.46082 | 13603 ft | 372 kts | 348° |
| 2026-05-08 03:17 | 48.57284 | -122.46830 | 13083 ft | 370 kts | 348° |
| 2026-05-08 03:17 | 48.59797 | -122.47573 | 12691 ft | 365 kts | 348° |
| 2026-05-08 03:18 | 48.62245 | -122.48297 | 12543 ft | 352 kts | 348° |
| 2026-05-08 03:18 | 48.64616 | -122.48999 | 12387 ft | 342 kts | 348° |
| 2026-05-08 03:18 | 48.66920 | -122.49682 | 12237 ft | 333 kts | 348° |
| 2026-05-08 03:18 | 48.69167 | -122.50354 | 12097 ft | 324 kts | 346° |
| 2026-05-08 03:19 | 48.71197 | -122.51630 | 11923 ft | 314 kts | 323° |
| 2026-05-08 03:19 | 48.72771 | -122.53860 | 11691 ft | 308 kts | 308° |
| 2026-05-08 03:19 | 48.74094 | -122.56372 | 11458 ft | 304 kts | 306° |
| 2026-05-08 03:19 | 48.75367 | -122.58909 | 11207 ft | 301 kts | 306° |
| 2026-05-08 03:20 | 48.76612 | -122.61405 | 10961 ft | 298 kts | 306° |
| 2026-05-08 03:20 | 48.77863 | -122.63896 | 10717 ft | 297 kts | 306° |
| 2026-05-08 03:20 | 48.79114 | -122.66374 | 10482 ft | 295 kts | 306° |
| 2026-05-08 03:20 | 48.80363 | -122.68834 | 10246 ft | 293 kts | 306° |
| 2026-05-08 03:21 | 48.81608 | -122.71280 | 10007 ft | 292 kts | 306° |
| 2026-05-08 03:21 | 48.82844 | -122.73708 | 9748 ft | 290 kts | 306° |
| 2026-05-08 03:21 | 48.84073 | -122.76118 | 9497 ft | 287 kts | 306° |
| 2026-05-08 03:21 | 48.85291 | -122.78508 | 9255 ft | 285 kts | 306° |
| 2026-05-08 03:22 | 48.86496 | -122.80874 | 9027 ft | 282 kts | 306° |
| 2026-05-08 03:22 | 48.87697 | -122.83228 | 8791 ft | 280 kts | 308° |
| 2026-05-08 03:22 | 48.89177 | -122.85062 | 8465 ft | 282 kts | 338° |
| 2026-05-08 03:22 | 48.91090 | -122.85491 | 8087 ft | 279 kts | 4° |
| 2026-05-08 03:23 | 48.92989 | -122.84985 | 7768 ft | 273 kts | 14° |
| 2026-05-08 03:23 | 48.94792 | -122.84261 | 7524 ft | 265 kts | 15° |
| 2026-05-08 03:23 | 48.96568 | -122.83526 | 7156 ft | 263 kts | 15° |
| 2026-05-08 03:23 | 48.98339 | -122.82802 | 6790 ft | 262 kts | 15° |
| 2026-05-08 03:24 | 49.00094 | -122.82098 | 6431 ft | 260 kts | 15° |
| 2026-05-08 03:24 | 49.01821 | -122.81417 | 6068 ft | 258 kts | 15° |
| 2026-05-08 03:24 | 49.03553 | -122.80738 | 5716 ft | 256 kts | 15° |
| 2026-05-08 03:24 | 49.05272 | -122.80067 | 5357 ft | 253 kts | 14° |
| 2026-05-08 03:25 | 49.06973 | -122.79404 | 4990 ft | 251 kts | 14° |
| 2026-05-08 03:25 | 49.08605 | -122.78504 | 4613 ft | 249 kts | 29° |
| 2026-05-08 03:25 | 49.10197 | -122.77543 | 4232 ft | 247 kts | 8° |
| 2026-05-08 03:25 | 49.11903 | -122.77293 | 3848 ft | 246 kts | 5° |
| 2026-05-08 03:26 | 49.13596 | -122.77057 | 3597 ft | 239 kts | 5° |
| 2026-05-08 03:26 | 49.15210 | -122.76833 | 3499 ft | 227 kts | 2° |
| 2026-05-08 03:26 | 49.16687 | -122.77330 | 3348 ft | 215 kts | 324° |
| 2026-05-08 03:26 | 49.17532 | -122.79112 | 3090 ft | 210 kts | 280° |
| 2026-05-08 03:27 | 49.17379 | -122.81239 | 3057 ft | 205 kts | 250° |
| 2026-05-08 03:27 | 49.17114 | -122.83422 | 3013 ft | 208 kts | 268° |
| 2026-05-08 03:27 | 49.17079 | -122.85619 | 2999 ft | 210 kts | 269° |
| 2026-05-08 03:27 | 49.17121 | -122.87860 | 2996 ft | 211 kts | 272° |
| 2026-05-08 03:28 | 49.17217 | -122.90099 | 2996 ft | 212 kts | 276° |
| 2026-05-08 03:28 | 49.17411 | -122.92329 | 2984 ft | 212 kts | 278° |
| 2026-05-08 03:28 | 49.17653 | -122.94565 | 2812 ft | 214 kts | 279° |
| 2026-05-08 03:28 | 49.17905 | -122.96822 | 2538 ft | 217 kts | 279° |
| 2026-05-08 03:29 | 49.18159 | -122.99098 | 2242 ft | 216 kts | 278° |
| 2026-05-08 03:29 | 49.18409 | -123.01336 | 1954 ft | 207 kts | 278° |
| 2026-05-08 03:29 | 49.18644 | -123.03443 | 1672 ft | 194 kts | 278° |
| 2026-05-08 03:29 | 49.18864 | -123.05403 | 1426 ft | 180 kts | 277° |
| 2026-05-08 03:30 | 49.19260 | -123.08942 | 940 ft | 160 kts | 278° |
| 2026-05-08 03:30 | 49.19638 | -123.12300 | 520 ft | 156 kts | 278° |
| 2026-05-08 03:31 | 49.20010 | -123.15603 | 115 ft | 158 kts | 277° |
| 2026-05-08 03:31 | 49.20293 | -123.18134 | 23 ft | 49 kts | 279° |
| 2026-05-08 03:32 | 49.20349 | -123.18662 | 26 ft | 49 kts | 281° |
| 2026-05-08 03:32 | 49.20392 | -123.19135 | 20 ft | 38 kts | 262° |
| 2026-05-08 03:32 | 49.20322 | -123.19481 | 21 ft | 14 kts | 250° |
| 2026-05-08 03:32 | 49.20320 | -123.19491 | 21 ft | 0 kts | 251° |
| 2026-05-08 03:33 | 49.20320 | -123.19492 | 21 ft | 1 kts | 251° |
| 2026-05-08 03:33 | 49.20295 | -123.19590 | 22 ft | 13 kts | 242° |
| 2026-05-08 03:33 | 49.20241 | -123.19552 | 22 ft | 13 kts | 102° |
| 2026-05-08 03:33 | 49.20225 | -123.19419 | 22 ft | 14 kts | 101° |
| 2026-05-08 03:34 | 49.20195 | -123.19165 | 22 ft | 31 kts | 100° |
| 2026-05-08 03:34 | 49.20088 | -123.19040 | 22 ft | 22 kts | 188° |
| 2026-05-08 03:34 | 49.19920 | -123.19081 | 23 ft | 26 kts | 189° |
| 2026-05-08 03:34 | 49.19738 | -123.19127 | 22 ft | 27 kts | 190° |
| 2026-05-08 03:35 | 49.19602 | -123.19162 | 23 ft | 15 kts | 183° |
| 2026-05-08 03:35 | 49.19508 | -123.19099 | 23 ft | 15 kts | 145° |
| 2026-05-08 03:35 | 49.19391 | -123.18966 | 23 ft | 25 kts | 142° |
| 2026-05-08 03:35 | 49.19282 | -123.18839 | 23 ft | 15 kts | 143° |
| 2026-05-08 03:36 | 49.19220 | -123.18770 | 24 ft | 9 kts | 143° |
| 2026-05-08 03:36 | 49.19160 | -123.18698 | 23 ft | 12 kts | 142° |
| 2026-05-08 03:36 | 49.19144 | -123.18613 | 22 ft | 7 kts | 68° |
| 2026-05-08 03:36 | 49.19154 | -123.18543 | 22 ft | 8 kts | 120° |
| 2026-05-08 03:37 | 49.19109 | -123.18471 | 22 ft | 11 kts | 124° |
| 2026-05-08 03:37 | 49.19109 | -123.18436 | 23 ft | 3 kts | 43° |
| 2026-05-08 03:37 | 49.19153 | -123.18428 | 22 ft | 10 kts | 14° |
| 2026-05-08 03:37 | 49.19178 | -123.18416 | 23 ft | 0 kts | 19° |